Time;durP1;ratioP1;P1;durP2;ratioP2;P2;SDS_P1;SDS_P2;PMS_P1;PMS_P2;Temp;Humidity;BMP_temperature;BMP_pressure;BME280_temperature;BME280_humidity;BME280_pressure;Samples;Min_cycle;Max_cycle;Signal;HPM_P1;HPM_P2
2021/12/23 00:02:21;;;;;;;3.30;3.10;;;16.90;53.40;17.80;100922.00;;;;4966821;28;20539;-39
2021/12/23 00:04:47;;;;;;;3.57;3.27;;;16.90;53.00;17.70;100906.00;;;;4967170;28;20493;-39
2021/12/23 00:07:13;;;;;;;3.33;3.03;;;16.80;52.90;17.70;100905.00;;;;4967201;28;20197;-39
2021/12/23 00:12:13;;;;;;;3.40;3.10;;;16.80;53.00;17.70;100905.00;;;;4967907;28;20157;-38
2021/12/23 00:14:39;;;;;;;3.23;3.00;;;16.80;53.00;17.60;100891.00;;;;4966230;28;20746;-38
2021/12/23 00:25:17;;;;;;;3.47;3.17;;;16.60;53.00;17.50;100879.00;;;;4967701;28;20200;-38
2021/12/23 00:27:43;;;;;;;3.50;3.20;;;16.60;53.00;17.50;100877.00;;;;4967080;28;20173;-37
2021/12/23 00:30:09;;;;;;;3.50;3.20;;;16.60;53.00;17.40;100886.00;;;;4967660;28;20360;-37
2021/12/23 00:32:35;;;;;;;3.50;3.20;;;16.60;53.20;17.40;100886.00;;;;4967182;28;20256;-37
2021/12/23 00:35:01;;;;;;;3.30;3.00;;;16.50;53.10;17.40;100886.00;;;;4967680;28;20248;-38
2021/12/23 00:37:35;;;;;;;3.70;3.40;;;16.50;53.00;17.40;100888.00;;;;4966910;28;20181;-37
2021/12/23 00:40:00;;;;;;;3.40;3.10;;;16.50;53.10;17.30;100888.00;;;;4967679;28;20169;-39
2021/12/23 00:42:26;;;;;;;3.40;3.20;;;16.40;53.10;17.30;100876.00;;;;4967089;28;20168;-38
2021/12/23 00:44:52;;;;;;;3.33;3.03;;;16.40;53.70;17.30;100857.00;;;;4967621;28;20196;-38
2021/12/23 00:47:17;;;;;;;3.43;3.17;;;16.40;53.00;17.20;100869.00;;;;4966966;28;20212;-38
2021/12/23 00:49:43;;;;;;;3.47;3.27;;;16.40;53.10;17.20;100862.00;;;;4967275;28;20173;-38
2021/12/23 00:52:09;;;;;;;3.40;3.10;;;16.30;53.00;17.20;100856.00;;;;4967069;28;20177;-38
2021/12/23 00:54:35;;;;;;;3.47;3.17;;;16.40;53.10;17.20;100838.00;;;;4966905;28;20189;-38
2021/12/23 00:57:01;;;;;;;3.70;3.40;;;16.30;52.90;17.10;100849.00;;;;4966856;28;20200;-38
2021/12/23 00:59:26;;;;;;;3.53;3.23;;;16.30;53.00;17.10;100827.00;;;;4967434;28;20193;-38
2021/12/23 01:01:52;;;;;;;4.03;3.40;;;16.30;53.30;17.10;100835.00;;;;4967421;28;20526;-38
2021/12/23 01:04:18;;;;;;;5.17;3.63;;;16.20;53.20;17.10;100828.00;;;;4967303;28;20185;-38
2021/12/23 01:06:43;;;;;;;4.00;3.60;;;16.20;53.30;17.10;100825.00;;;;4966440;28;20287;-38
2021/12/23 01:09:09;;;;;;;4.03;3.73;;;16.20;53.30;17.00;100813.00;;;;4967337;28;20636;-38
2021/12/23 01:11:35;;;;;;;6.30;4.73;;;16.20;53.00;17.00;100811.00;;;;4967097;28;20177;-38
2021/12/23 01:14:14;;;;;;;6.80;4.60;;;16.10;52.60;17.00;100816.00;;;;4967210;28;20176;-38
2021/12/23 01:19:25;;;;;;;5.03;4.20;;;16.00;52.30;16.90;100811.00;;;;4967249;28;20173;-38
2021/12/23 01:21:51;;;;;;;5.20;4.70;;;16.00;52.10;16.80;100797.00;;;;4966692;28;20169;-38
2021/12/23 01:24:17;;;;;;;5.07;4.67;;;15.90;52.00;16.80;100796.00;;;;4967295;28;20694;-38
2021/12/23 01:26:43;;;;;;;5.10;4.70;;;15.90;51.90;16.80;100795.00;;;;4967304;28;20263;-38
2021/12/23 01:29:08;;;;;;;4.63;4.23;;;15.90;51.80;16.70;100793.00;;;;4967062;28;20173;-38
2021/12/23 01:31:35;;;;;;;4.70;4.30;;;15.80;51.70;16.70;100794.00;;;;4971089;28;20189;-38
2021/12/23 01:34:01;;;;;;;4.77;4.40;;;15.80;51.80;16.70;100799.00;;;;4973919;28;20667;-38
2021/12/23 01:36:27;;;;;;;4.43;4.03;;;15.80;51.90;16.70;100803.00;;;;4970851;28;20177;-38
2021/12/23 01:38:53;;;;;;;4.73;4.33;;;15.80;52.20;16.60;100804.00;;;;4970980;28;20243;-38
2021/12/23 01:41:18;;;;;;;6.63;4.17;;;15.80;52.10;16.60;100806.00;;;;4970861;28;20615;-38
2021/12/23 01:43:44;;;;;;;4.73;3.80;;;15.70;52.20;16.60;100796.00;;;;4969326;28;20215;-38
2021/12/23 01:46:10;;;;;;;4.40;4.00;;;15.70;52.10;16.60;100797.00;;;;4970189;28;20196;-38
2021/12/23 01:48:36;;;;;;;4.33;4.00;;;15.70;52.20;16.60;100792.00;;;;4970880;28;20165;-37
2021/12/23 01:51:01;;;;;;;4.37;4.00;;;15.70;52.30;16.50;100774.00;;;;4970599;28;20173;-39
2021/12/23 01:53:27;;;;;;;4.13;3.73;;;15.70;52.40;16.50;100772.00;;;;4970655;28;20180;-39
2021/12/23 01:55:53;;;;;;;3.90;3.60;;;15.60;52.40;16.50;100760.00;;;;4969823;28;20193;-39
2021/12/23 01:58:19;;;;;;;4.40;3.70;;;15.60;52.40;16.50;100734.00;;;;4970450;28;20177;-39
2021/12/23 02:00:47;;;;;;;4.00;3.70;;;15.60;52.40;16.40;100755.00;;;;4970206;28;20567;-39
2021/12/23 02:03:13;;;;;;;4.10;3.80;;;15.60;52.40;16.40;100752.00;;;;4970707;28;20173;-39
2021/12/23 02:05:39;;;;;;;4.13;3.73;;;15.60;52.50;16.40;100747.00;;;;4970313;28;20208;-39
2021/12/23 02:08:05;;;;;;;3.90;3.60;;;15.50;52.60;16.30;100742.00;;;;4969921;28;20176;-39
2021/12/23 02:10:30;;;;;;;3.80;3.50;;;15.50;52.40;16.30;100746.00;;;;4970191;28;20168;-39
2021/12/23 02:12:56;;;;;;;3.90;3.60;;;15.50;52.80;16.30;100744.00;;;;4969066;28;20176;-39
2021/12/23 02:15:22;;;;;;;4.20;3.80;;;15.50;52.60;16.30;100765.00;;;;4970175;28;20197;-39
2021/12/23 02:17:48;;;;;;;3.90;3.60;;;15.50;52.60;16.30;100773.00;;;;4970080;28;20579;-39
2021/12/23 02:20:17;;;;;;;4.13;3.73;;;15.50;52.30;16.40;100762.00;;;;4970117;28;20272;-39
2021/12/23 02:22:43;;;;;;;3.70;3.40;;;15.50;53.00;16.30;100757.00;;;;4970093;28;20184;-39
2021/12/23 02:25:09;;;;;;;3.60;3.30;;;15.50;52.60;16.30;100741.00;;;;4970144;28;20283;-39
2021/12/23 02:27:35;;;;;;;3.57;3.27;;;15.40;52.10;16.40;100745.00;;;;4969389;28;20196;-39
2021/12/23 02:30:06;;;;;;;3.93;3.63;;;15.40;52.20;16.40;100749.00;;;;4969983;28;20686;-39
2021/12/23 02:32:34;;;;;;;3.83;3.53;;;15.40;52.20;16.40;100735.00;;;;4968473;28;20212;-39
2021/12/23 02:35:00;;;;;;;3.73;3.43;;;15.40;52.20;16.30;100725.00;;;;4970113;28;20223;-39
2021/12/23 02:37:25;;;;;;;3.77;3.47;;;15.40;52.10;16.30;100732.00;;;;4969897;28;20177;-39
2021/12/23 02:39:51;;;;;;;3.80;3.50;;;15.40;51.90;16.30;100722.00;;;;4970169;28;20670;-39
2021/12/23 02:42:17;;;;;;;3.80;3.50;;;15.30;51.90;16.30;100726.00;;;;4969257;28;20181;-39
2021/12/23 02:44:42;;;;;;;3.73;3.43;;;15.30;51.90;16.30;100711.00;;;;4969463;28;20204;-39
2021/12/23 02:47:08;;;;;;;3.80;3.50;;;15.30;51.80;16.30;100708.00;;;;4969448;28;20201;-39
2021/12/23 02:49:34;;;;;;;3.97;3.67;;;15.30;52.20;16.30;100696.00;;;;4970056;28;20247;-39
2021/12/23 02:52:00;;;;;;;3.87;3.50;;;15.30;52.00;16.30;100680.00;;;;4969722;28;20228;-39
2021/12/23 02:54:25;;;;;;;3.70;3.40;;;15.20;51.90;16.30;100682.00;;;;4969311;28;20197;-39
2021/12/23 02:56:51;;;;;;;3.50;3.30;;;15.20;52.00;16.30;100660.00;;;;4969585;28;20774;-39
2021/12/23 02:59:17;;;;;;;3.87;3.57;;;15.20;51.90;16.30;100587.00;;;;4969054;28;20181;-39
2021/12/23 03:01:42;;;;;;;3.73;3.43;;;15.20;52.00;16.30;100664.00;;;;4969658;28;20173;-39
2021/12/23 03:04:08;;;;;;;3.47;3.23;;;15.10;52.00;16.20;100690.00;;;;4972119;28;20558;-39
2021/12/23 03:06:34;;;;;;;3.90;3.50;;;15.10;51.90;16.20;100696.00;;;;4971804;28;20189;-39
2021/12/23 03:09:02;;;;;;;3.20;3.00;;;15.10;52.00;16.20;100698.00;;;;4968817;28;20173;-39
2021/12/23 03:11:28;;;;;;;4.10;3.70;;;15.00;51.90;16.20;100694.00;;;;4968882;28;20545;-39
2021/12/23 03:13:54;;;;;;;4.03;3.63;;;15.00;51.90;16.20;100685.00;;;;4968964;28;20180;-39
2021/12/23 03:16:28;;;;;;;3.40;3.10;;;15.00;51.90;16.10;100693.00;;;;4968847;28;20172;-39
2021/12/23 03:18:54;;;;;;;3.80;3.50;;;15.00;51.90;16.10;100692.00;;;;4969450;28;20173;-39
2021/12/23 03:21:20;;;;;;;4.00;3.63;;;15.00;51.90;15.90;100688.00;;;;4969045;28;20683;-39
2021/12/23 03:23:46;;;;;;;3.97;3.67;;;15.00;51.90;16.10;100682.00;;;;4968874;28;20181;-39
2021/12/23 03:26:12;;;;;;;3.97;3.67;;;15.00;52.00;16.10;100674.00;;;;4968846;28;20231;-39
2021/12/23 03:28:37;;;;;;;3.90;3.60;;;14.90;51.90;16.10;100669.00;;;;4968610;28;20173;-39
2021/12/23 03:31:03;;;;;;;3.77;3.47;;;14.90;51.80;16.10;100670.00;;;;4968969;28;20208;-39
2021/12/23 03:33:29;;;;;;;3.73;3.43;;;14.90;51.90;16.00;100677.00;;;;4953358;28;20240;-39
2021/12/23 03:35:55;;;;;;;3.77;3.47;;;14.90;51.90;16.00;100665.00;;;;4949074;28;20194;-39
2021/12/23 03:38:21;;;;;;;4.10;3.40;;;14.90;51.80;16.00;100661.00;;;;4949292;29;20220;-39
2021/12/23 03:40:47;;;;;;;4.07;3.77;;;14.90;51.90;16.00;100671.00;;;;4949389;28;20249;-39
2021/12/23 03:43:14;;;;;;;3.90;3.47;;;14.90;52.10;16.00;100662.00;;;;4949503;28;20277;-39
2021/12/23 03:45:42;;;;;;;3.73;3.43;;;14.80;51.80;16.00;100666.00;;;;4949230;28;20204;-39
2021/12/23 03:48:09;;;;;;;4.00;3.70;;;14.80;52.10;15.90;100670.00;;;;4948753;28;20189;-39
2021/12/23 03:50:34;;;;;;;4.20;3.80;;;14.80;52.10;15.90;100572.00;;;;4949380;28;20173;-39
2021/12/23 03:53:00;;;;;;;3.90;3.50;;;14.80;52.10;15.90;100661.00;;;;4948424;28;20653;-39
2021/12/23 03:55:26;;;;;;;3.80;3.50;;;14.70;52.10;15.90;100656.00;;;;4949078;28;20611;-39
2021/12/23 03:57:52;;;;;;;3.77;3.47;;;14.70;52.70;15.80;100649.00;;;;4947823;29;20707;-39
2021/12/23 04:00:19;;;;;;;3.77;3.47;;;14.80;52.40;15.80;100650.00;;;;4948961;28;20236;-39
2021/12/23 04:02:45;;;;;;;3.80;3.50;;;14.90;52.20;15.90;100660.00;;;;4949141;28;20264;-39
2021/12/23 04:05:11;;;;;;;3.77;3.47;;;15.10;52.00;15.90;100662.00;;;;4949118;28;20269;-39
2021/12/23 04:07:40;;;;;;;3.77;3.47;;;15.30;51.90;16.00;100673.00;;;;4948649;29;20819;-39
2021/12/23 04:10:17;;;;;;;3.77;3.47;;;15.50;51.50;16.10;100675.00;;;;4948826;28;20185;-39
2021/12/23 04:12:43;;;;;;;3.37;3.10;;;15.80;51.10;16.20;100666.00;;;;4948742;28;20170;-39
2021/12/23 04:15:09;;;;;;;3.73;3.43;;;16.10;50.90;16.40;100661.00;;;;4948855;29;20225;-39
2021/12/23 04:17:35;;;;;;;3.70;3.40;;;16.30;50.50;16.50;100655.00;;;;4948746;28;20193;-39
2021/12/23 04:20:14;;;;;;;3.50;3.20;;;16.50;50.40;16.70;100648.00;;;;4948926;29;20760;-39
2021/12/23 04:22:41;;;;;;;3.20;3.00;;;16.60;50.40;16.80;100644.00;;;;4949035;28;20165;-39
2021/12/23 04:25:08;;;;;;;3.73;3.43;;;16.70;50.40;16.90;100633.00;;;;4948654;28;20201;-39
2021/12/23 04:27:34;;;;;;;3.20;3.00;;;16.70;50.40;16.90;100633.00;;;;4948649;28;20281;-39
2021/12/23 04:29:59;;;;;;;3.40;3.10;;;16.70;50.40;17.00;100616.00;;;;4948884;28;20169;-39
2021/12/23 04:32:25;;;;;;;3.20;3.00;;;16.80;50.40;17.00;100606.00;;;;4950271;28;20174;-39
2021/12/23 04:34:51;;;;;;;3.60;3.30;;;16.80;50.50;17.10;100605.00;;;;4950669;28;20561;-39
2021/12/23 04:37:16;;;;;;;3.53;3.10;;;16.80;50.60;17.00;100620.00;;;;4947945;28;20895;-39
2021/12/23 04:39:42;;;;;;;3.60;3.30;;;16.80;50.90;17.10;100612.00;;;;4948399;28;20174;-39
2021/12/23 04:42:08;;;;;;;3.50;3.20;;;16.70;51.10;17.10;100597.00;;;;4948520;28;20600;-39
2021/12/23 04:44:34;;;;;;;4.23;3.30;;;16.70;51.20;17.20;100587.00;;;;4948509;28;20268;-39
2021/12/23 04:46:59;;;;;;;5.23;3.33;;;16.70;51.20;17.20;100592.00;;;;4947979;28;20202;-39
2021/12/23 04:49:25;;;;;;;7.50;3.20;;;16.70;51.60;17.20;100591.00;;;;4947867;28;20586;-39
2021/12/23 04:51:51;;;;;;;3.87;3.13;;;16.70;51.60;17.20;100583.00;;;;4948202;28;20582;-39
2021/12/23 04:54:17;;;;;;;5.23;3.00;;;16.70;51.70;17.20;100573.00;;;;4948410;29;20186;-39
2021/12/23 04:56:42;;;;;;;3.63;3.10;;;16.60;51.70;17.20;100572.00;;;;4948255;28;20667;-39
2021/12/23 04:59:08;;;;;;;5.07;3.23;;;16.60;51.80;17.20;100562.00;;;;4948340;28;20174;-39
2021/12/23 05:01:34;;;;;;;3.70;3.27;;;16.60;51.80;17.20;100557.00;;;;4947899;29;20178;-39
2021/12/23 05:04:00;;;;;;;3.83;3.53;;;16.50;51.70;17.10;100552.00;;;;4947766;28;20236;-39
2021/12/23 05:06:25;;;;;;;3.30;2.97;;;16.50;51.70;17.10;100550.00;;;;4947885;28;20230;-39
2021/12/23 05:08:51;;;;;;;3.80;3.50;;;16.40;51.70;17.10;100547.00;;;;4948176;28;20685;-39
2021/12/23 05:11:17;;;;;;;4.63;3.50;;;16.40;51.70;17.10;100543.00;;;;4948139;28;20177;-39
2021/12/23 05:13:44;;;;;;;3.60;3.30;;;16.40;51.80;17.10;100550.00;;;;4947859;28;20216;-39
2021/12/23 05:16:10;;;;;;;3.50;3.20;;;16.30;51.70;17.10;100542.00;;;;4947615;28;20248;-39
2021/12/23 05:18:35;;;;;;;3.53;3.23;;;16.30;51.70;17.10;100541.00;;;;4947761;29;20162;-39
2021/12/23 05:21:02;;;;;;;3.60;3.30;;;16.30;51.80;17.00;100561.00;;;;4947811;29;20581;-39
2021/12/23 05:23:29;;;;;;;3.50;3.20;;;16.30;51.90;16.70;100561.00;;;;4948293;28;20184;-39
2021/12/23 05:25:55;;;;;;;3.40;3.10;;;16.20;51.90;17.00;100547.00;;;;4947526;28;20201;-39
2021/12/23 05:28:20;;;;;;;3.50;3.20;;;16.20;52.00;17.00;100533.00;;;;4952491;28;20188;-39
2021/12/23 05:30:46;;;;;;;3.60;3.30;;;16.10;51.90;17.00;100525.00;;;;4966329;28;20604;-39
2021/12/23 05:33:12;;;;;;;3.50;3.20;;;16.10;51.90;16.90;100521.00;;;;4966562;28;20204;-39
2021/12/23 05:35:37;;;;;;;3.77;3.33;;;16.10;52.10;16.90;100521.00;;;;4966476;28;20232;-39
2021/12/23 05:38:03;;;;;;;4.50;3.43;;;16.10;52.20;16.90;100524.00;;;;4966980;28;20173;-39
2021/12/23 05:40:29;;;;;;;5.13;3.33;;;16.00;52.10;16.80;100536.00;;;;4972560;28;20173;-39
2021/12/23 05:42:56;;;;;;;4.13;3.50;;;16.00;52.20;16.80;100532.00;;;;4968266;28;20165;-39
2021/12/23 05:45:22;;;;;;;4.30;3.10;;;16.00;52.30;16.80;100550.00;;;;4966523;28;20181;-38
2021/12/23 05:47:48;;;;;;;4.70;3.60;;;15.90;52.20;16.80;100551.00;;;;4966179;28;20209;-39
2021/12/23 05:50:14;;;;;;;4.50;3.60;;;15.90;52.30;16.70;100559.00;;;;4966671;28;20563;-39
2021/12/23 05:52:39;;;;;;;3.73;3.43;;;15.90;52.30;16.70;100549.00;;;;4966254;28;20200;-39
2021/12/23 05:55:06;;;;;;;4.80;3.23;;;15.90;52.40;16.70;100518.00;;;;4966745;28;20343;-39
2021/12/23 05:57:32;;;;;;;5.30;3.43;;;15.90;52.60;16.70;100503.00;;;;4965297;28;20173;-39
2021/12/23 05:59:58;;;;;;;6.83;3.70;;;15.90;52.60;16.70;100521.00;;;;4965667;28;20279;-39
2021/12/23 06:02:24;;;;;;;5.77;3.90;;;15.80;52.50;16.70;100502.00;;;;4965849;28;20173;-39
2021/12/23 06:04:50;;;;;;;5.10;3.70;;;15.80;52.60;16.60;100506.00;;;;4967026;28;20223;-39
2021/12/23 06:07:15;;;;;;;6.57;3.77;;;15.80;52.70;16.30;100494.00;;;;4968785;28;20239;-39
2021/12/23 06:09:41;;;;;;;6.97;3.77;;;15.70;52.60;16.20;100496.00;;;;4966652;28;20201;-39
2021/12/23 06:12:07;;;;;;;10.20;3.70;;;15.70;52.60;16.60;100488.00;;;;4965778;28;20169;-39
2021/12/23 06:14:33;;;;;;;5.67;4.07;;;15.70;52.80;16.50;100489.00;;;;4966198;28;20204;-39
2021/12/23 06:17:01;;;;;;;3.90;3.50;;;15.60;52.80;16.50;100492.00;;;;4967743;28;20162;-39
2021/12/23 06:19:27;;;;;;;5.20;3.90;;;15.60;52.80;16.50;100484.00;;;;4970082;28;20177;-39
2021/12/23 06:21:52;;;;;;;8.27;3.57;;;15.60;52.70;16.50;100487.00;;;;4969314;28;20180;-39
2021/12/23 06:24:18;;;;;;;5.90;3.90;;;15.60;52.90;16.40;100477.00;;;;4970162;28;20189;-39
2021/12/23 06:26:44;;;;;;;10.07;4.03;;;15.50;52.80;16.40;100470.00;;;;4969849;28;20208;-39
2021/12/23 06:29:09;;;;;;;5.60;4.10;;;15.50;52.90;16.40;100465.00;;;;4969250;28;20173;-39
2021/12/23 06:31:35;;;;;;;6.20;3.87;;;15.50;53.00;16.30;100481.00;;;;4969089;28;20184;-39
2021/12/23 06:34:01;;;;;;;4.83;3.83;;;15.50;52.90;16.30;100494.00;;;;4969455;28;20179;-39
2021/12/23 06:36:27;;;;;;;5.07;3.70;;;15.40;53.00;16.30;100482.00;;;;4969580;28;20184;-39
2021/12/23 06:38:52;;;;;;;5.90;3.83;;;15.40;52.90;16.30;100469.00;;;;4969110;28;20860;-39
2021/12/23 06:41:18;;;;;;;5.03;3.83;;;15.40;53.00;16.30;100462.00;;;;4967815;28;20189;-39
2021/12/23 06:43:45;;;;;;;7.70;4.00;;;15.50;52.70;16.30;100469.00;;;;4969509;28;20239;-39
2021/12/23 06:46:10;;;;;;;6.87;3.70;;;15.70;52.50;16.40;100456.00;;;;4968048;28;20614;-39
2021/12/23 06:48:36;;;;;;;6.87;4.27;;;15.80;52.10;16.50;100463.00;;;;4969251;28;20168;-39
2021/12/23 06:51:02;;;;;;;6.23;3.97;;;16.10;52.00;16.60;100452.00;;;;4969061;28;20177;-39
2021/12/23 06:53:28;;;;;;;4.67;3.57;;;16.30;51.50;16.70;100441.00;;;;4969255;28;20655;-39
2021/12/23 06:55:55;;;;;;;4.70;3.40;;;16.60;51.40;16.90;100457.00;;;;4969224;28;20732;-39
2021/12/23 06:58:23;;;;;;;3.70;3.40;;;16.90;51.00;17.00;100459.00;;;;4969172;28;20173;-39
2021/12/23 07:00:49;;;;;;;5.30;3.60;;;17.10;50.50;17.20;100470.00;;;;4968910;28;20231;-39
2021/12/23 07:03:14;;;;;;;3.90;3.40;;;17.40;50.20;17.40;100449.00;;;;4969403;28;20177;-39
2021/12/23 07:05:40;;;;;;;4.07;3.43;;;17.70;49.80;17.50;100466.00;;;;4968709;28;20212;-39
2021/12/23 07:08:11;;;;;;;4.00;3.60;;;17.80;49.70;17.70;100464.00;;;;4969263;28;20173;-39
2021/12/23 07:10:37;;;;;;;4.80;3.53;;;17.90;49.80;17.80;100475.00;;;;4969319;28;20177;-39
2021/12/23 07:13:03;;;;;;;4.83;3.50;;;18.00;49.60;17.90;100481.00;;;;4969059;28;20668;-39
2021/12/23 07:15:29;;;;;;;4.43;3.80;;;18.00;49.70;18.00;100483.00;;;;4968817;28;20193;-39
2021/12/23 07:17:56;;;;;;;3.80;3.50;;;18.00;49.70;18.10;100479.00;;;;4968625;28;20177;-39
2021/12/23 07:20:22;;;;;;;3.70;3.27;;;18.10;49.80;18.20;100460.00;;;;4969098;28;20278;-39
2021/12/23 07:22:48;;;;;;;4.17;3.77;;;18.10;49.80;18.20;100456.00;;;;4968488;28;20232;-39
2021/12/23 07:25:15;;;;;;;5.70;3.37;;;18.10;49.80;18.30;100468.00;;;;4968672;28;20776;-39
2021/12/23 07:27:41;;;;;;;3.73;3.40;;;18.20;50.00;18.30;100469.00;;;;4968577;28;20255;-39
2021/12/23 07:30:08;;;;;;;4.13;3.40;;;18.20;49.80;18.40;100465.00;;;;4968232;28;20667;-38
2021/12/23 07:32:34;;;;;;;3.80;3.40;;;18.20;49.90;18.40;100465.00;;;;4960178;28;20221;-38
2021/12/23 07:35:00;;;;;;;3.57;3.27;;;18.20;49.80;18.40;100477.00;;;;4949101;29;20197;-38
2021/12/23 07:37:25;;;;;;;3.63;3.33;;;18.10;49.90;18.40;100472.00;;;;4948739;28;20790;-38
2021/12/23 07:39:53;;;;;;;4.13;3.27;;;18.10;50.10;18.40;100466.00;;;;4949403;29;20178;-38
2021/12/23 07:42:20;;;;;;;3.50;3.20;;;18.00;50.20;18.40;100447.00;;;;4948771;28;20214;-39
2021/12/23 07:44:46;;;;;;;4.27;3.40;;;17.90;50.20;18.40;100454.00;;;;4948764;29;20190;-39
2021/12/23 07:47:12;;;;;;;3.60;3.30;;;17.90;50.30;18.40;100448.00;;;;4948661;28;20225;-39
2021/12/23 07:49:38;;;;;;;3.90;3.50;;;18.00;50.60;18.40;100451.00;;;;4949165;28;20718;-39
2021/12/23 07:52:06;;;;;;;3.97;3.67;;;17.90;50.50;18.40;100462.00;;;;4948481;28;20170;-39
2021/12/23 07:54:32;;;;;;;3.57;3.27;;;17.80;50.60;18.30;100472.00;;;;4948149;29;20193;-38
2021/12/23 07:56:58;;;;;;;3.97;3.57;;;17.70;50.60;18.30;100462.00;;;;4948290;28;20186;-39
2021/12/23 07:59:24;;;;;;;3.60;3.30;;;17.70;50.70;18.30;100472.00;;;;4948865;28;20174;-39
2021/12/23 08:01:50;;;;;;;3.97;3.57;;;17.70;50.70;18.30;100474.00;;;;4948411;29;20179;-38
2021/12/23 08:04:15;;;;;;;4.40;3.40;;;17.60;50.80;18.20;100461.00;;;;4948842;29;20214;-39
2021/12/23 08:06:42;;;;;;;3.67;3.30;;;17.60;50.80;18.20;100454.00;;;;4948242;28;20205;-39
2021/12/23 08:09:08;;;;;;;3.87;3.47;;;17.60;50.90;18.20;100453.00;;;;4948682;28;20176;-38
2021/12/23 08:11:33;;;;;;;4.20;3.80;;;17.50;50.80;18.20;100446.00;;;;4948387;29;20177;-38
2021/12/23 08:13:59;;;;;;;4.37;3.70;;;17.50;50.90;18.10;100442.00;;;;4948981;28;20174;-38
2021/12/23 08:16:25;;;;;;;3.60;3.30;;;17.50;51.00;18.10;100432.00;;;;4948384;29;20173;-38
2021/12/23 08:18:51;;;;;;;3.90;3.60;;;17.50;50.90;18.10;100435.00;;;;4948404;29;20208;-38
2021/12/23 08:21:16;;;;;;;3.63;3.33;;;17.40;50.80;18.10;100432.00;;;;4948154;28;20277;-38
2021/12/23 08:23:42;;;;;;;3.67;3.33;;;17.50;50.90;18.10;100432.00;;;;4948284;29;20184;-38
2021/12/23 08:26:15;;;;;;;3.83;3.50;;;17.50;50.90;18.20;100422.00;;;;4947671;29;20208;-38
2021/12/23 08:28:41;;;;;;;6.00;3.40;;;17.60;50.70;18.10;100432.00;;;;4948296;29;20201;-38
2021/12/23 08:31:06;;;;;;;3.70;3.40;;;17.60;50.50;18.20;100437.00;;;;4947984;29;20170;-38
2021/12/23 08:33:32;;;;;;;4.27;3.70;;;17.70;50.50;18.20;100438.00;;;;4948201;28;20185;-38
2021/12/23 08:35:58;;;;;;;4.13;3.60;;;17.80;50.40;18.20;100440.00;;;;4948004;29;20214;-38
2021/12/23 08:38:23;;;;;;;4.00;3.60;;;17.80;50.30;18.20;100446.00;;;;4947803;28;20194;-40
2021/12/23 08:40:49;;;;;;;3.90;3.60;;;17.90;50.20;18.30;100455.00;;;;4947900;29;20212;-40
2021/12/23 08:43:15;;;;;;;3.73;3.43;;;18.00;50.10;18.30;100451.00;;;;4948358;28;20171;-39
2021/12/23 08:45:41;;;;;;;3.70;3.40;;;18.00;50.00;18.30;100443.00;;;;4947768;28;20187;-39
2021/12/23 08:48:06;;;;;;;3.47;3.20;;;18.00;50.00;18.30;100439.00;;;;4948728;28;20677;-39
2021/12/23 08:50:32;;;;;;;3.60;3.30;;;18.00;50.00;18.40;100449.00;;;;4948012;29;20193;-38
2021/12/23 08:52:59;;;;;;;3.70;3.40;;;18.10;50.00;18.40;100372.00;;;;4947871;28;20174;-38
2021/12/23 08:55:27;;;;;;;3.80;3.50;;;18.10;50.00;18.40;100449.00;;;;4947628;28;20193;-38
2021/12/23 08:57:57;;;;;;;3.70;3.40;;;18.00;50.00;18.40;100443.00;;;;4947624;28;20232;-38
2021/12/23 09:00:23;;;;;;;3.57;3.27;;;18.00;50.20;18.40;100442.00;;;;4948059;28;20249;-38
2021/12/23 09:02:49;;;;;;;3.43;3.13;;;18.00;50.30;18.40;100438.00;;;;4948001;29;20181;-38
2021/12/23 09:05:17;;;;;;;3.80;3.50;;;17.90;50.20;18.40;100439.00;;;;4948045;29;20204;-40
2021/12/23 09:07:42;;;;;;;3.70;3.40;;;17.90;50.40;18.40;100439.00;;;;4947972;28;20282;-37
2021/12/23 09:10:09;;;;;;;3.60;3.30;;;17.80;50.40;18.40;100435.00;;;;4950651;28;20183;-37
2021/12/23 09:12:35;;;;;;;3.73;3.30;;;17.80;50.60;18.40;100432.00;;;;4966814;28;20632;-38
2021/12/23 09:15:01;;;;;;;3.90;3.50;;;17.70;50.50;18.30;100437.00;;;;4962022;28;20260;-38
2021/12/23 09:17:26;;;;;;;3.90;3.60;;;17.70;50.70;18.30;100429.00;;;;4947289;28;20158;-38
2021/12/23 09:19:52;;;;;;;3.90;3.60;;;17.60;50.70;18.30;100434.00;;;;4947430;28;20181;-38
2021/12/23 09:22:18;;;;;;;4.83;3.30;;;17.60;51.00;18.30;100439.00;;;;4946786;28;20174;-38
2021/12/23 09:24:46;;;;;;;3.77;3.47;;;17.60;51.20;18.30;100441.00;;;;4947025;28;20644;-38
2021/12/23 09:35:01;;;;;;;5.30;3.60;;;17.50;51.60;18.20;100426.00;;;;4968362;28;20248;-38
2021/12/23 09:37:28;;;;;;;4.33;3.93;;;17.50;51.40;18.20;100427.00;;;;4959053;28;20177;-38
2021/12/23 09:39:55;;;;;;;5.07;3.70;;;17.70;51.10;18.30;100419.00;;;;4949444;28;20186;-38
2021/12/23 09:42:33;;;;;;;4.17;3.37;;;17.90;50.70;18.30;100411.00;;;;4949341;29;20166;-38
2021/12/23 09:45:04;;;;;;;6.03;3.73;;;18.10;50.80;18.40;100413.00;;;;4949335;28;20255;-38
2021/12/23 09:47:32;;;;;;;6.90;3.70;;;18.30;50.50;18.50;100398.00;;;;4948649;28;20209;-38
2021/12/23 09:49:59;;;;;;;6.10;3.80;;;18.40;50.20;18.60;100400.00;;;;4948358;28;20166;-38
2021/12/23 09:52:27;;;;;;;7.80;4.30;;;18.40;49.80;18.70;100400.00;;;;4951800;28;20193;-38
2021/12/23 09:54:52;;;;;;;6.77;4.10;;;18.40;49.90;18.70;100385.00;;;;4936046;29;20190;-38
2021/12/23 09:57:18;;;;;;;7.97;4.20;;;18.40;50.10;18.70;100385.00;;;;4919859;29;20195;-38
2021/12/23 09:59:44;;;;;;;13.20;4.40;;;18.40;50.00;18.80;100384.00;;;;4953230;29;20186;-38
2021/12/23 10:02:10;;;;;;;11.13;4.33;;;18.40;50.00;18.80;100386.00;;;;4952899;29;20178;-38
2021/12/23 10:04:36;;;;;;;9.00;4.50;;;18.40;49.90;18.80;100386.00;;;;4953270;28;20193;-38
2021/12/23 10:07:02;;;;;;;7.60;4.20;;;18.40;49.70;18.80;100378.00;;;;4952430;28;20290;-38
2021/12/23 10:12:57;;;;;;;7.53;4.77;;;18.30;49.80;18.80;100378.00;;;;4952650;29;20249;-38
2021/12/23 10:31:42;;;;;;;11.97;4.90;;;18.10;52.70;18.70;100352.00;;;;4954713;28;20264;-38
2021/12/23 10:37:21;;;;;;;13.30;4.73;;;18.00;52.90;18.70;100345.00;;;;4971455;28;20541;-38
2021/12/23 10:40:04;;;;;;;5.03;3.93;;;18.00;52.90;18.70;100335.00;;;;4971787;28;20200;-38
2021/12/23 10:42:30;;;;;;;12.00;4.50;;;18.00;52.90;18.60;100321.00;;;;4971184;28;20161;-38
2021/12/23 10:45:06;;;;;;;8.30;4.20;;;17.90;52.80;18.60;100314.00;;;;4971415;28;20205;-38
2021/12/23 10:48:05;;;;;;;5.67;3.90;;;17.90;52.80;18.60;100306.00;;;;4971014;28;20615;-38
2021/12/23 10:53:12;;;;;;;8.90;4.40;;;17.80;52.80;18.50;100317.00;;;;4971163;28;20177;-38
2021/12/23 10:58:22;;;;;;;9.30;4.57;;;17.80;52.80;18.50;100301.00;;;;4970836;28;20602;-38
2021/12/23 11:00:54;;;;;;;8.03;4.40;;;17.80;53.20;18.50;100285.00;;;;4971097;28;20173;-38
2021/12/23 11:06:24;;;;;;;5.27;4.20;;;17.80;52.80;18.50;100276.00;;;;4971188;28;20213;-38
2021/12/23 11:08:58;;;;;;;7.53;4.37;;;17.90;52.80;18.60;100272.00;;;;4971165;28;20240;-38
2021/12/23 11:31:54;;;;;;;5.43;3.80;;;19.00;50.80;19.30;100258.00;;;;4970917;28;20252;-37
2021/12/23 11:36:31;;;;;;;7.30;4.00;;;19.00;51.20;19.40;100245.00;;;;4950795;29;20232;-38
2021/12/23 11:43:57;;;;;;;5.43;3.63;;;19.00;51.60;19.50;100226.00;;;;4951296;29;20185;-38
2021/12/23 11:46:33;;;;;;;6.30;4.10;;;18.90;51.90;19.50;100231.00;;;;4950442;29;20201;-38
2021/12/23 11:49:01;;;;;;;6.27;4.10;;;18.90;52.10;19.40;100229.00;;;;4951323;28;20184;-38
2021/12/23 11:51:35;;;;;;;5.37;3.77;;;18.80;52.20;19.50;100227.00;;;;4950385;29;20586;-38
2021/12/23 11:54:03;;;;;;;4.20;3.80;;;18.80;52.30;19.40;100217.00;;;;4951938;28;20180;-38
2021/12/23 11:56:30;;;;;;;6.00;3.43;;;18.80;52.60;19.40;100216.00;;;;4951667;29;20178;-39
2021/12/23 11:58:58;;;;;;;6.83;3.70;;;18.80;52.60;19.40;100204.00;;;;4950149;29;20188;-39
2021/12/23 12:01:30;;;;;;;6.97;3.97;;;18.70;52.60;19.40;100205.00;;;;4949477;29;20181;-39
2021/12/23 12:04:07;;;;;;;6.87;4.20;;;18.70;52.70;19.40;100195.00;;;;4954483;28;20231;-39
2021/12/23 12:06:42;;;;;;;5.60;4.00;;;18.70;52.70;19.40;100189.00;;;;4960263;28;20243;-39